^^

Meteo Aereoporti Centro-Italia

 

 
LIRZ - Perugia S.Egidio (208 m.)
Dati ricevuti: 23/07/2017 22:50
Dati non aggiornati
Qualche nuvola
Qualche nuvola
 Vento da direzione variabile
Vento: direzione variabile 6 km/h
TEMPERATURA: 28°C
Indice di Calore: 28°C
P.to di Rugiada: 14°C
Umidità: 42%
Pressione: 1014 hPa
Nuvole: Qualche nuvola
Visibilità: 10 km
Dettagli Nuvole: Qualche nuvola 1829 m
2017/07/23 20:50 LIRZ 232050Z VRB03KT 9999 FEW060 28/14 Q1014
 
LIPY - Ancona Falconara (12 m.)
Dati ricevuti: 24/07/2017 03:50
Sereno
Sereno
 Vento da S
Vento: S 6 km/h
TEMPERATURA: 23°C
P.to di Rugiada: 16°C
Umidità: 65%
Pressione: 1010 hPa
Condizioni generali: Sereno
Visibilità: oltre 10 km
2017/07/24 01:50 LIPY 240150Z 19003KT CAVOK 23/16 Q1010
 
LIPR - Rimini Miramare (12 m.)
Dati ricevuti: 24/07/2017 04:15
Sereno
Sereno
 Vento da SSW
Vento: SSW 6 km/h
TEMPERATURA: 24°C
P.to di Rugiada: 20°C
Umidità: 78%
Pressione: 1010 hPa
Condizioni generali: Sereno
Visibilità: oltre 10 km
2017/07/24 02:15 LIPR 240215Z 21003KT CAVOK 24/20 Q1010
 
LIRF - Roma Fiumicino (2 m.)
Dati ricevuti: 24/07/2017 04:20
Qualche nuvola
Qualche nuvola
 Vento da direzione variabile
Vento: direzione variabile 4 km/h
TEMPERATURA: 22°C
P.to di Rugiada: 21°C
Umidità: 94%
Pressione: 1012 hPa
Nuvole: Qualche nuvola
Visibilità: 6 km
Dettagli Nuvole: Qualche nuvola 244 m
2017/07/24 02:20 LIRF 240220Z VRB02KT 6000 FEW008 22/21 Q1012 NOSIG
 
LIRA - Roma Ciampino (129 m.)
Dati ricevuti: 24/07/2017 04:20
Poco nuvoloso
Poco nuvoloso
 Vento da ESE
Vento: ESE 9 km/h
TEMPERATURA: 23°C
P.to di Rugiada: 15°C
Umidità: 61%
Pressione: 1013 hPa
Nuvole: Poco nuvoloso
Visibilità: 9 km
2017/07/24 02:20 LIRA 240220Z 11005KT 9000 NSC 23/15 Q1013
 
LIRU - Roma Urbe (17 m.)
Dati ricevuti: 23/07/2017 18:50
Dati non aggiornati
Sereno
Sereno
 Vento da WSW
Vento: WSW 17 km/h
TEMPERATURA: 32°C
Indice di Calore: 34°C
P.to di Rugiada: 19°C
Umidità: 46%
Pressione: 1014 hPa
Condizioni generali: Sereno
Visibilità: oltre 10 km
2017/07/23 16:50 LIRU 231650Z 25009KT CAVOK 32/19 Q1014
 
LIVF - Frontone (570 m.)
Dati ricevuti: 23/07/2017 21:55
Dati non aggiornati
Sereno
Sereno
 Vento da WSW
Vento: WSW 17 km/h
TEMPERATURA: 27°C
Indice di Calore: 27°C
P.to di Rugiada: 15°C
Umidità: 48%
Pressione: 1014 hPa
Condizioni generali: Sereno
Visibilità: oltre 10 km
2017/07/23 19:55 LIVF 231955Z 24009KT CAVOK 27/15 Q1014
 
LIRQ - Firenze Peretola (40 m.)
Dati ricevuti: 24/07/2017 04:20
Sereno
Sereno
 Vento da ESE
Vento: ESE 15 km/h
TEMPERATURA: 24°C
P.to di Rugiada: 18°C
Umidità: 69%
Pressione: 1010 hPa
Condizioni generali: Sereno
Visibilità: oltre 10 km
2017/07/24 02:20 LIRQ 240220Z 11008KT CAVOK 24/18 Q1010
 
LIBP - Pescara (10 m.)
Dati ricevuti: 24/07/2017 02:50
Dati non aggiornati
Qualche nuvola
Qualche nuvola
 Vento da SSW
Vento: SSW 9 km/h
TEMPERATURA: 22°C
P.to di Rugiada: 15°C
Umidità: 65%
Pressione: 1011 hPa
Nuvole: Qualche nuvola
Visibilità: 10 km
Dettagli Nuvole: Qualche nuvola 5791 m
2017/07/24 00:50 LIBP 240050Z AUTO 20005KT 9999 FEW190/// 22/15 Q1011
 
LIRV - Viterbo (300 m.)
Dati ricevuti: 23/07/2017 20:55
Dati non aggiornati
Sereno
Sereno
 Vento da S
Vento: S 9 km/h
TEMPERATURA: 27°C
Indice di Calore: 28°C
P.to di Rugiada: 18°C
Umidità: 58%
Pressione: 1016 hPa
Condizioni generali: Sereno
Visibilità: oltre 10 km
2017/07/23 18:55 LIRV 231855Z 18005KT CAVOK 27/18 Q1016
 
LIQN - Rieti (389 m.)
Dati ricevuti: 23/07/2017 19:50
Dati non aggiornati
Sereno
Sereno
 Vento da W
Vento: W 13 km/h
TEMPERATURA: 32°C
P.to di Rugiada: 14°C
Umidità: 33%
Pressione: 1014 hPa
Condizioni generali: Sereno
Visibilità: oltre 10 km
2017/07/23 17:50 LIQN 231750Z 28007KT CAVOK 32/14 Q1014
 
LIRG - Guidonia -RM- (88 m.)
Dati ricevuti: 21/07/2017 19:55
Dati non aggiornati
Sereno
Sereno
 Vento da SSW
Vento: SSW 11 km/h
TEMPERATURA: 30°C
P.to di Rugiada: 11°C
Umidità: 31%
Pressione: 1012 hPa
Condizioni generali: Sereno
Visibilità: oltre 10 km
2017/07/21 17:55 LIRG 211755Z 20006KT CAVOK 30/11 Q1012
 
LIRK - Terminillo -RI-(1874 m.)
Dati ricevuti: 24/07/2017 03:55

 Vento da WNW
Vento: WNW 26 km/h
2017/07/24 01:55 LIRK 240155Z AUTO 29014KT //// ///// Q////
 
LIPK - Forlì (27 m.)
Dati ricevuti: 21/07/2017 17:50
Dati non aggiornati
Sereno
Sereno
 Vento da E
Vento: E 13 km/h
TEMPERATURA: 31°C
Indice di Calore: 32°C
P.to di Rugiada: 17°C
Umidità: 43%
Pressione: 1010 hPa
Condizioni generali: Sereno
Visibilità: oltre 10 km
2017/07/21 15:50 LIPK 211550Z 09007KT CAVOK 31/17 Q1010
 
LIRS - Grosseto (5 m.)
Dati ricevuti: 24/07/2017 02:55
Dati non aggiornati
Molto nuvoloso
Molto nuvoloso
 Vento da direzione variabile
Vento: direzione variabile 4 km/h
TEMPERATURA: 25°C
P.to di Rugiada: 22°C
Umidità: 83%
Pressione: 1012 hPa
Nuvole: Molto nuvoloso
Visibilità: 10 km
Dettagli Nuvole: Qualche nuvola 914 m
Molto nuvoloso 1524 m
2017/07/24 00:55 LIRS 240055Z VRB02KT 9999 FEW030 BKN050 25/22 Q1012
 
LIRP - Pisa S.Giusto (2 m.)
Dati ricevuti: 24/07/2017 04:15
Sereno
Sereno
 Vento da ENE
Vento: ENE 11 km/h
TEMPERATURA: 23°C
P.to di Rugiada: 22°C
Umidità: 94%
Pressione: 1011 hPa
Condizioni generali: Sereno
Visibilità: oltre 10 km
2017/07/24 02:15 LIRP 240215Z 07006KT CAVOK 23/22 Q1011 NOSIG